Flight Track Log - Related Links

Times and Time Zones

All times are in EDT time to prevent confusion due to time zone crossing. See the N72WP flight status page for this flight to view local times or setup timezone preferences in your user account.

Time Position Orientation Groundspeed Altitude Reporting Facility
EDT Latitude Longitude Course Direction KTS MPH feet Rate Location/Type
Fri 02:17:22 PM 34.7817 -96.6100 84° East 121 139 3,100  Level Fort Worth Center
Fri 02:18:24 PM 34.7853 -96.5703 84° East 118 136 4,000 871 Climbing Fort Worth Center
Fri 02:19:26 PM 34.7892 -96.5286 84° East 119 137 4,900 919 Climbing Fort Worth Center
Fri 02:20:28 PM 34.7931 -96.4864 84° East 122 140 5,900 968 Climbing Fort Worth Center
Fri 02:21:30 PM 34.7964 -96.4447 84° East 122 140 6,900 919 Climbing Fort Worth Center
Fri 02:22:32 PM 34.8008 -96.4019 83° East 123 142 7,800 960 Climbing Fort Worth Center
Fri 02:23:35 PM 34.8050 -96.3478 85° East 131 151 8,900 1,008 Climbing Fort Worth Center
Fri 02:24:37 PM 34.8078 -96.3017 86° East 134 154 9,900 919 Climbing Fort Worth Center
Fri 02:25:39 PM 34.8122 -96.2553 83° East 135 155 10,800 532 Climbing Fort Worth Center
Fri 02:26:41 PM 34.8164 -96.2042 84° East 148 170 11,000 97 Climbing Fort Worth Center
Fri 02:27:43 PM 34.8214 -96.1411 84° East 179 206 11,000  Level Fort Worth Center
Fri 02:28:45 PM 34.8269 -96.0639 85° East 191 220 11,000  Level Fort Worth Center
Fri 02:29:47 PM 34.8311 -96.0022 85° East 185 213 11,000  Level Fort Worth Center
Fri 02:30:49 PM 34.8367 -95.9383 84° East 187 215 11,000  Level Fort Worth Center
Fri 02:31:52 PM 34.8408 -95.8767 85° East 187 215 11,000  Level Fort Worth Center
Fri 02:32:54 PM 34.8456 -95.8131 85° East 188 216 11,000  Level Fort Worth Center
Fri 02:33:56 PM 34.8494 -95.7508 86° East 185 213 11,000  Level Fort Worth Center
Fri 02:34:58 PM 34.8439 -95.6761 95° East 186 214 11,000  Level Fort Worth Center
Fri 02:36:00 PM 34.8422 -95.6119 92° East 186 214 11,000  Level Fort Worth Center
Fri 02:37:02 PM 34.8408 -95.5494 92° East 187 215 11,000  Level Fort Worth Center
Fri 02:38:04 PM 34.8381 -95.4867 93° East 188 216 11,000  Level Fort Worth Center
Fri 02:39:06 PM 34.8336 -95.4256 95° East 185 213 11,000  Level Fort Worth Center
Fri 02:40:08 PM 34.8314 -95.3481 92° East 185 213 11,000  Level Fort Worth Center
Fri 02:41:11 PM 34.8283 -95.2833 93° East 187 215 11,000  Level Fort Worth Center
Fri 02:42:13 PM 34.8267 -95.2164 92° East 192 221 11,000  Level Fort Worth Center
Fri 02:43:15 PM 34.8236 -95.1494 93° East 192 221 11,000  Level Fort Worth Center
Fri 02:44:17 PM 34.8206 -95.0811 93° East 193 222 11,000  Level Fort Worth Center
Fri 02:45:19 PM 34.8183 -95.0128 92° East 193 222 11,000  Level Fort Worth Center
Fri 02:46:21 PM 34.8153 -94.9456 93° East 193 222 11,000  Level Fort Worth Center
Fri 02:47:23 PM 34.8122 -94.8792 93° East 191 220 11,000  Level Fort Worth Center
Fri 02:48:25 PM 34.8094 -94.8114 93° East 191 220 11,000  Level Fort Worth Center
Fri 02:49:27 PM 34.8067 -94.7494 93° East 191 220 11,000  Level Fort Worth Center
Fri 02:50:30 PM 34.8039 -94.6814 93° East 191 220 11,000  Level Fort Worth Center
Fri 02:51:32 PM 34.8006 -94.6131 93° East 192 221 11,000  Level Fort Worth Center
Fri 02:52:34 PM 34.7969 -94.5453 94° East 192 221 11,000  Level Fort Worth Center
Fri 02:53:36 PM 34.7939 -94.4764 93° East 193 222 11,000  Level Fort Worth Center
Fri 02:54:38 PM 34.7903 -94.4064 94° East 196 226 11,000  Level Fort Worth Center
Fri 02:55:40 PM 34.7875 -94.3378 93° East 196 226 11,000  Level Fort Worth Center
Fri 02:56:42 PM 34.7842 -94.2739 94° East 196 226 11,000  Level Fort Worth Center
Fri 02:57:44 PM 34.7814 -94.2058 93° East 196 226 11,000  Level Fort Worth Center
Fri 02:58:47 PM 34.7769 -94.1364 94° East 196 226 11,000  Level Fort Worth Center
Fri 02:59:49 PM 34.7747 -94.0672 92° East 196 226 11,000  Level Fort Worth Center
Fri 03:00:51 PM 34.7706 -93.9947 94° East 204 235 11,000  Level Fort Worth Center
Fri 03:01:53 PM 34.7667 -93.9267 94° East 199 229 11,000  Level Fort Worth Center
Fri 03:02:55 PM 34.7631 -93.8578 94° East 198 228 11,000  Level Fort Worth Center
Fri 03:03:57 PM 34.7594 -93.7894 94° East 195 224 11,000  Level Fort Worth Center
Fri 03:05:21 PM 34.7542 -93.7067 94° East 196 226 11,000  Level Memphis Center
Fri 03:06:23 PM 34.7500 -93.6389 94° East 197 227 11,000  Level Memphis Center
Fri 03:07:25 PM 34.7467 -93.5589 93° East 197 227 11,000  Level Memphis Center
Fri 03:08:27 PM 34.7433 -93.4914 93° East 197 227 11,000  Level Memphis Center
Fri 03:09:29 PM 34.7417 -93.4244 92° East 198 228 11,000  Level Memphis Center
Fri 03:10:32 PM 34.7400 -93.3556 92° East 200 230 11,000  Level Memphis Center
Fri 03:11:34 PM 34.7372 -93.2894 93° East 200 230 11,000  Level Memphis Center
Fri 03:12:36 PM 34.7331 -93.2083 94° East 200 230 11,000  Level Memphis Center
Fri 03:13:38 PM 34.7231 -93.1414 100° East 200 230 11,000  Level Memphis Center
Fri 03:14:41 PM 34.7139 -93.0700 99° East 202 232 11,000  Level Memphis Center
Fri 03:15:42 PM 34.7139 -93.0075 90° East 201 231 11,000  Level Memphis Center
Fri 03:16:44 PM 34.7111 -92.9417 93° East 201 231 11,000  Level Memphis Center
Fri 03:17:46 PM 34.7064 -92.8775 95° East 197 227 11,000  Level Memphis Center
Fri 03:18:48 PM 34.7053 -92.7983 91° East 196 226 11,000  Level Memphis Center
Fri 03:19:51 PM 34.7033 -92.7317 92° East 195 224 11,000  Level Memphis Center
Fri 03:20:53 PM 34.6922 -92.6642 101° East 192 221 11,000  Level Memphis Center
Fri 03:21:53 PM 34.6897 -92.5958 93° East 192 221 11,000  Level Memphis Center
Fri 03:22:54 PM 34.6850 -92.5331 95° East 198 228 11,000  Level Memphis Center
Fri 03:23:55 PM 34.6800 -92.4650 95° East 197 227 11,000  Level Memphis Center
Fri 03:24:49 PM 34.6778 -92.4069 93° East 195 224 11,000  Level Memphis Center
Fri 03:25:01 PM 34.6764 -92.3942 98° East 195 224 11,000  Level Memphis Center
Fri 03:25:50 PM 34.6728 -92.3364 94° East 195 224 11,000  Level Memphis Center
Fri 03:26:03 PM 34.6717 -92.3289 100° East 195 224 11,000 90 Level Memphis Center
Fri 03:26:57 PM 34.6675 -92.2633 94° East 196 226 11,100  Climbing Memphis Center
Fri 03:27:58 PM 34.6628 -92.2006 95° East 198 228 11,000 -52 Descending Memphis Center
Fri 03:28:52 PM 34.6578 -92.1375 95° East 195 224 11,000  Level Memphis Center
Fri 03:29:10 PM 34.6592 -92.1311 75° East 195 224 11,000  Level Memphis Center
Fri 03:29:53 PM 34.6550 -92.0744 95° East 194 223 11,000  Level Memphis Center
Fri 03:30:12 PM 34.6547 -92.0533 91° East 195 224 11,000  Level Memphis Center
Fri 03:30:54 PM 34.6500 -92.0067 97° East 193 222 11,000  Level Memphis Center
Fri 03:31:14 PM 34.6508 -91.9881 87° East 195 224 11,000  Level Memphis Center
Fri 03:31:55 PM 34.6447 -91.9386 99° East 193 222 11,000  Level Memphis Center
Fri 03:32:16 PM 34.6447 -91.9233 90° East 195 224 11,000  Level Memphis Center
Fri 03:32:56 PM 34.6419 -91.8756 94° East 195 224 11,000  Level Memphis Center
Fri 03:33:18 PM 34.6414 -91.8569 92° East 195 224 11,000  Level Memphis Center
Fri 03:33:56 PM 34.6367 -91.8078 97° East 196 226 11,000  Level Memphis Center
Fri 03:34:20 PM 34.6356 -91.7919 95° East 195 224 11,000  Level Memphis Center
Fri 03:35:03 PM 34.6311 -91.7347 95° East 195 224 11,000  Level Memphis Center
Fri 03:35:22 PM 34.6319 -91.7214 86° East 195 224 11,000  Level Memphis Center
Fri 03:36:24 PM 34.6275 -91.6567 95° East 195 224 11,000  Level Memphis Center
Fri 03:37:26 PM 34.6231 -91.5794 94° East 195 224 11,000  Level Memphis Center
Fri 03:38:29 PM 34.6161 -91.5161 98° East 194 223 11,000 48 Level Memphis Center
Fri 03:39:31 PM 34.6106 -91.4511 96° East 192 221 11,100 48 Climbing Memphis Center
Fri 03:40:33 PM 34.6069 -91.3858 94° East 192 221 11,100 -48 Level Memphis Center
Fri 03:41:35 PM 34.6025 -91.3208 95° East 192 221 11,000 -48 Descending Memphis Center
Fri 03:42:38 PM 34.5986 -91.2556 94° East 193 222 11,000  Level Memphis Center
Fri 03:43:39 PM 34.5925 -91.1789 96° East 192 221 11,000  Level Memphis Center
Fri 03:44:41 PM 34.5864 -91.1150 97° East 192 221 11,000  Level Memphis Center
Fri 03:45:43 PM 34.5931 -91.0514 83° East 192 221 11,000 48 Level Memphis Center
Fri 03:46:45 PM 34.6067 -90.9936 74° East 182 209 11,100 48 Climbing Memphis Center
Fri 03:47:48 PM 34.6164 -90.9314 79° East 183 211 11,100 -48 Level Memphis Center
Fri 03:48:50 PM 34.6339 -90.8603 73° East 183 211 11,000 -48 Descending Memphis Center
Fri 03:49:52 PM 34.6486 -90.8006 73° East 183 211 11,000  Level Memphis Center
Fri 03:50:54 PM 34.6611 -90.7417 76° East 183 211 11,000  Level Memphis Center
Fri 03:51:56 PM 34.6742 -90.6819 75° East 183 211 11,000 48 Level Memphis Center
Fri 03:52:58 PM 34.6875 -90.6222 75° East 183 211 11,100  Climbing Memphis Center
Fri 03:54:00 PM 34.7022 -90.5642 73° East 183 211 11,000 -48 Descending Memphis Center
Fri 03:55:02 PM 34.7144 -90.4919 78° East 183 211 11,000 48 Level Memphis Center
Fri 03:56:04 PM 34.7019 -90.4283 103° East 189 217 11,100  Climbing Memphis Center
Fri 03:57:07 PM 34.6967 -90.3642 96° East 191 220 11,000 -48 Descending Memphis Center
Fri 03:58:09 PM 34.6886 -90.3011 99° East 191 220 11,000 48 Level Memphis Center
Fri 03:59:11 PM 34.6819 -90.2386 97° East 190 219 11,100  Climbing Memphis Center
Fri 04:00:13 PM 34.6731 -90.1639 98° East 190 219 11,000 -48 Descending Memphis Center
Fri 04:01:15 PM 34.6661 -90.1011 98° East 190 219 11,000 48 Level Memphis Center
Fri 04:02:17 PM 34.6589 -90.0383 98° East 190 219 11,100  Climbing Memphis Center
Fri 04:03:19 PM 34.6511 -89.9758 99° East 190 219 11,000 432 Descending Memphis Center
Fri 04:04:22 PM 34.6453 -89.9164 97° East 185 213 12,000 960 Climbing Memphis Center
Fri 04:05:24 PM 34.6383 -89.8564 98° East 156 180 13,000 484 Climbing Memphis Center
Fri 04:06:26 PM 34.6311 -89.7942 98° East 179 206 13,000  Level Memphis Center
Fri 04:07:28 PM 34.6228 -89.7283 99° East 195 224 13,000 -48 Level Memphis Center
Fri 04:08:30 PM 34.6156 -89.6625 98° East 196 226 12,900  Descending Memphis Center
Fri 04:09:32 PM 34.6072 -89.5978 99° East 196 226 13,000 48 Climbing Memphis Center
Fri 04:10:34 PM 34.5983 -89.5200 98° East 196 226 13,000  Level Memphis Center
Fri 04:11:36 PM 34.5911 -89.4550 98° East 196 226 13,000  Level Memphis Center
Fri 04:12:38 PM 34.5811 -89.3894 100° East 196 226 13,000  Level Memphis Center
Fri 04:13:40 PM 34.5586 -89.3278 114° Southeast 197 227 13,000  Level Memphis Center
Fri 04:14:43 PM 34.5347 -89.2658 115° Southeast 202 232 13,000  Level Memphis Center
Fri 04:15:45 PM 34.5128 -89.2039 113° Southeast 202 232 13,000  Level Memphis Center
Fri 04:16:47 PM 34.4875 -89.1294 112° Southeast 202 232 13,000  Level Memphis Center
Fri 04:17:49 PM 34.4808 -89.0642 97° East 197 227 13,000  Level Memphis Center
Fri 04:18:51 PM 34.4761 -88.9983 95° East 195 224 13,000  Level Memphis Center
Fri 04:19:53 PM 34.4678 -88.9336 99° East 195 224 13,000  Level Memphis Center
Fri 04:20:55 PM 34.4619 -88.8681 96° East 196 226 13,000  Level Memphis Center
Fri 04:21:57 PM 34.4542 -88.7958 97° East 196 226 13,000  Level Memphis Center
Fri 04:22:59 PM 34.4467 -88.7300 98° East 196 226 13,000  Level Memphis Center
Fri 04:24:01 PM 34.4403 -88.6636 97° East 196 226 13,000  Level Memphis Center
Fri 04:25:04 PM 34.4303 -88.5844 99° East 197 227 13,000  Level Memphis Center
Fri 04:26:06 PM 34.4233 -88.5172 97° East 199 229 13,000  Level Memphis Center
Fri 04:27:08 PM 34.4164 -88.4511 97° East 199 229 13,000  Level Memphis Center
Fri 04:28:10 PM 34.4075 -88.3850 99° East 199 229 13,000  Level Memphis Center
Fri 04:29:12 PM 34.4006 -88.3194 97° East 199 229 13,000  Level Memphis Center
Fri 04:30:14 PM 34.3919 -88.2411 98° East 198 228 13,000  Level Memphis Center
Fri 04:31:16 PM 34.3839 -88.1747 98° East 198 228 13,000  Level Memphis Center
Fri 04:32:18 PM 34.3758 -88.1086 98° East 198 228 13,000  Level Memphis Center
Fri 04:33:20 PM 34.3675 -88.0436 99° East 198 228 13,000  Level Memphis Center
Fri 04:34:22 PM 34.3606 -87.9769 97° East 198 228 13,000  Level Memphis Center
Fri 04:35:25 PM 34.3528 -87.9117 98° East 198 228 13,000  Level Memphis Center
Fri 04:36:27 PM 34.3436 -87.8386 99° East 198 228 13,000  Level Memphis Center
Fri 04:37:29 PM 34.3361 -87.7744 98° East 198 228 13,000  Level Memphis Center
Fri 04:38:31 PM 34.3283 -87.7092 98° East 198 228 13,000  Level Memphis Center
Fri 04:39:33 PM 34.3192 -87.6303 98° East 198 228 13,000  Level Memphis Center
Fri 04:40:35 PM 34.3114 -87.5656 98° East 197 227 13,000  Level Memphis Center
Fri 04:41:37 PM 34.3042 -87.5022 98° East 196 226 13,000  Level Memphis Center
Fri 04:42:39 PM 34.2958 -87.4378 99° East 195 224 13,000  Level Memphis Center
Fri 04:43:41 PM 34.2878 -87.3742 99° East 195 224 13,000  Level Memphis Center
Fri 04:45:00 PM 34.2764 -87.2930 100° East  Level FlightAware Approximate
Fri 04:45:46 PM 34.2717 -87.2347 100° East 194 223 13,000  Level Memphis Center
Fri 04:46:48 PM 34.2628 -87.1711 100° East 194 223 13,000  Level Memphis Center
Fri 04:47:50 PM 34.2556 -87.1083 98° East 194 223 13,000  Level Memphis Center
Fri 04:48:52 PM 34.2475 -87.0447 99° East 193 222 13,000  Level Memphis Center
Fri 04:49:54 PM 34.2392 -86.9806 99° East 193 222 13,000  Level Memphis Center
Fri 04:50:56 PM 34.2308 -86.9172 99° East 193 222 13,000  Level Memphis Center
Fri 04:51:58 PM 34.2211 -86.8411 99° East 193 222 13,000  Level Memphis Center
Fri 04:53:00 PM 34.2131 -86.7772 99° East 193 222 13,000  Level Memphis Center
Fri 04:54:02 PM 34.2050 -86.7125 99° East 194 223 13,000 629 Level Memphis Center
Fri 04:55:04 PM 34.1989 -86.6569 98° East 175 201 14,300 960 Climbing Memphis Center
Fri 04:56:07 PM 34.1922 -86.6053 99° East 160 184 15,000 336 Climbing Memphis Center
Fri 04:57:09 PM 34.1800 -86.5311 101° East 182 209 15,000  Level Memphis Center
Fri 04:58:11 PM 34.1653 -86.4667 105° East 194 223 15,000  Level Memphis Center
Fri 04:59:13 PM 34.1556 -86.4000 100° East 200 230 15,000  Level Memphis Center
Fri 05:00:15 PM 34.1497 -86.3331 96° East 200 230 15,000  Level Memphis Center
Fri 05:01:17 PM 34.1411 -86.2675 99° East 200 230 15,000  Level Memphis Center
Fri 05:02:19 PM 34.1317 -86.2025 100° East 199 229 15,000 -242 Level Memphis Center
Fri 05:03:21 PM 34.1231 -86.1275 98° East 194 223 14,500 -484 Descending Memphis Center
Fri 05:04:23 PM 34.1139 -86.0628 100° East 193 222 14,000 -537 Descending Memphis Center
Fri 05:05:35 PM 34.1067 -85.9856 96° East 195 224 13,300 -545 Descending Atlanta Center
Fri 05:06:35 PM 34.1014 -85.9228 96° East 190 219 12,800 -550 Descending Atlanta Center
Fri 05:07:35 PM 34.1064 -85.8578 85° East 185 213 12,200 -550 Descending Atlanta Center
Fri 05:08:35 PM 34.1114 -85.8050 83° East 185 213 11,700 -550 Descending Atlanta Center
Fri 05:09:35 PM 34.1122 -85.7375 89° East 185 213 11,100 -350 Descending Atlanta Center
Fri 05:10:35 PM 34.1194 -85.6747 82° East 185 213 11,000 -50 Descending Atlanta Center
Fri 05:11:35 PM 34.1267 -85.6072 83° East 185 213 11,000  Level Atlanta Center
Fri 05:12:35 PM 34.1275 -85.5444 89° East 190 219 11,000 -300 Level Atlanta Center
Fri 05:13:35 PM 34.1114 -85.4864 109° East 190 219 10,400 -550 Descending Atlanta Center
Fri 05:14:35 PM 34.0975 -85.4261 106° East 190 219 9,900 -650 Descending Atlanta Center
Fri 05:15:35 PM 34.0814 -85.3731 110° East 178 205 9,100 -800 Descending Atlanta Center
Fri 05:16:35 PM 34.0694 -85.3178 105° East 173 199 8,300 -750 Descending Atlanta Center
Fri 05:17:35 PM 34.0575 -85.2650 105° East 167 192 7,600 -650 Descending Atlanta Center
Fri 05:18:35 PM 34.0414 -85.2069 109° East 167 192 7,000 -700 Descending Atlanta Center
Fri 05:19:35 PM 34.0272 -85.1467 106° East 172 198 6,200 -700 Descending Atlanta Center
Fri 05:20:35 PM 34.0172 -85.0864 101° East 177 204 5,600 -600 Descending Atlanta Center
Fri 05:21:35 PM 34.0158 -85.0236 92° East 183 211 5,000 -300 Descending Atlanta Center
Fri 05:22:35 PM 34.0142 -84.9611 92° East 178 205 5,000 -50 Level Atlanta Center
Fri 05:23:35 PM 34.0103 -84.9008 94° East 178 205 4,900  Descending Atlanta Center
Fri 05:24:35 PM 34.0086 -84.8406 92° East 178 205 5,000  Climbing Atlanta Center
Fri 05:26:10 PM 34.0000 -84.7333 96° East 183 211 4,900 -39 Descending Atlanta TRACON
Fri 05:27:10 PM 34.0000 -84.6667 90° East 181 208 4,900 50 Level Atlanta TRACON
Fri 05:28:10 PM 34.0000 -84.6167 90° East 176 203 5,000 50 Climbing Atlanta TRACON
Fri 05:29:10 PM 33.9833 -84.5667 112° Southeast 176 203 5,000 -53 Level Atlanta TRACON
Fri 05:30:04 PM 33.9833 -84.5000 90° East 177 204 4,900 -421 Descending Atlanta TRACON
Fri 05:31:04 PM 33.9833 -84.4500 90° East 168 193 4,200 -750 Descending Atlanta TRACON
Fri 05:32:04 PM 33.9833 -84.4000 90° East 165 190 3,400 -650 Descending Atlanta TRACON
Fri 05:33:04 PM 33.9833 -84.3333 90° East 158 182 2,900 -238 Descending Atlanta TRACON
Fri 05:34:10 PM 33.9667 -84.3000 121° Southeast 115 132 2,900 -94 Level Atlanta TRACON
Fri 05:35:11 PM 33.9500 -84.2667 121° Southeast 107 123 2,700 -397 Descending Atlanta TRACON
Fri 05:36:11 PM 33.9333 -84.2833 220° Southwest 91 105 2,100 -600 Descending Atlanta TRACON
Fri 05:37:11 PM 33.9000 -84.2833 180° South 86 99 1,500 -600 Descending Atlanta TRACON

Login

Don't have an account? Register now (free) for customized features, flight alerts, and more!